sensor_id;sensor_type;location;lat;lon;timestamp;P1;durP1;ratioP1;P2;durP2;ratioP2
4565;SDS011;2295;51.050;14.608;2022-12-17T00:01:04;101.15;;;34.45;;
4565;SDS011;2295;51.050;14.608;2022-12-17T00:04:02;106.50;;;33.88;;
4565;SDS011;2295;51.050;14.608;2022-12-17T00:07:05;91.82;;;32.05;;
4565;SDS011;2295;51.050;14.608;2022-12-17T00:10:04;100.38;;;33.47;;
4565;SDS011;2295;51.050;14.608;2022-12-17T00:13:03;102.05;;;33.45;;
4565;SDS011;2295;51.050;14.608;2022-12-17T00:15:54;102.43;;;34.15;;
4565;SDS011;2295;51.050;14.608;2022-12-17T00:18:50;106.53;;;35.03;;
4565;SDS011;2295;51.050;14.608;2022-12-17T00:21:51;87.97;;;33.67;;
4565;SDS011;2295;51.050;14.608;2022-12-17T00:24:44;101.55;;;35.47;;
4565;SDS011;2295;51.050;14.608;2022-12-17T00:27:46;108.18;;;34.50;;
4565;SDS011;2295;51.050;14.608;2022-12-17T00:30:37;96.78;;;34.35;;
4565;SDS011;2295;51.050;14.608;2022-12-17T00:33:42;87.05;;;32.95;;
4565;SDS011;2295;51.050;14.608;2022-12-17T00:36:50;90.18;;;32.33;;
4565;SDS011;2295;51.050;14.608;2022-12-17T00:39:59;96.97;;;34.70;;
4565;SDS011;2295;51.050;14.608;2022-12-17T00:43:06;85.80;;;31.95;;
4565;SDS011;2295;51.050;14.608;2022-12-17T00:46:13;93.93;;;33.83;;
4565;SDS011;2295;51.050;14.608;2022-12-17T00:49:08;90.93;;;34.25;;
4565;SDS011;2295;51.050;14.608;2022-12-17T00:52:08;102.05;;;35.58;;
4565;SDS011;2295;51.050;14.608;2022-12-17T00:55:14;97.47;;;33.70;;
4565;SDS011;2295;51.050;14.608;2022-12-17T00:58:07;90.63;;;33.75;;
4565;SDS011;2295;51.050;14.608;2022-12-17T01:01:05;98.30;;;33.60;;
4565;SDS011;2295;51.050;14.608;2022-12-17T01:04:04;89.22;;;33.42;;
4565;SDS011;2295;51.050;14.608;2022-12-17T01:07:06;93.15;;;32.85;;
4565;SDS011;2295;51.050;14.608;2022-12-17T01:10:15;105.20;;;35.83;;
4565;SDS011;2295;51.050;14.608;2022-12-17T01:13:17;100.05;;;32.58;;
4565;SDS011;2295;51.050;14.608;2022-12-17T01:16:18;88.93;;;32.60;;
4565;SDS011;2295;51.050;14.608;2022-12-17T01:19:47;92.28;;;33.17;;
4565;SDS011;2295;51.050;14.608;2022-12-17T01:22:51;96.85;;;33.45;;
4565;SDS011;2295;51.050;14.608;2022-12-17T01:25:51;97.00;;;35.95;;
4565;SDS011;2295;51.050;14.608;2022-12-17T01:28:48;97.00;;;33.42;;
4565;SDS011;2295;51.050;14.608;2022-12-17T01:31:43;99.70;;;34.67;;
4565;SDS011;2295;51.050;14.608;2022-12-17T01:34:38;96.38;;;35.83;;
4565;SDS011;2295;51.050;14.608;2022-12-17T01:37:37;95.95;;;34.38;;
4565;SDS011;2295;51.050;14.608;2022-12-17T01:40:38;92.45;;;34.55;;
4565;SDS011;2295;51.050;14.608;2022-12-17T01:43:44;101.93;;;35.30;;
4565;SDS011;2295;51.050;14.608;2022-12-17T01:46:44;88.93;;;33.15;;
4565;SDS011;2295;51.050;14.608;2022-12-17T01:49:38;98.97;;;34.88;;
4565;SDS011;2295;51.050;14.608;2022-12-17T01:52:27;99.25;;;35.45;;
4565;SDS011;2295;51.050;14.608;2022-12-17T01:55:18;98.63;;;34.92;;
4565;SDS011;2295;51.050;14.608;2022-12-17T01:58:08;88.22;;;32.40;;
4565;SDS011;2295;51.050;14.608;2022-12-17T02:01:02;91.40;;;33.63;;
4565;SDS011;2295;51.050;14.608;2022-12-17T02:03:55;90.50;;;31.80;;
4565;SDS011;2295;51.050;14.608;2022-12-17T02:06:53;90.97;;;32.08;;
4565;SDS011;2295;51.050;14.608;2022-12-17T02:10:12;92.55;;;33.22;;
4565;SDS011;2295;51.050;14.608;2022-12-17T02:13:14;83.25;;;31.40;;
4565;SDS011;2295;51.050;14.608;2022-12-17T02:16:11;94.00;;;31.42;;
4565;SDS011;2295;51.050;14.608;2022-12-17T02:19:10;90.32;;;31.92;;
4565;SDS011;2295;51.050;14.608;2022-12-17T02:22:18;91.50;;;31.92;;
4565;SDS011;2295;51.050;14.608;2022-12-17T02:25:27;89.38;;;33.92;;
4565;SDS011;2295;51.050;14.608;2022-12-17T02:28:38;87.80;;;32.55;;
4565;SDS011;2295;51.050;14.608;2022-12-17T02:31:39;87.43;;;32.53;;
4565;SDS011;2295;51.050;14.608;2022-12-17T02:34:43;87.93;;;32.25;;
4565;SDS011;2295;51.050;14.608;2022-12-17T02:37:44;88.20;;;31.60;;
4565;SDS011;2295;51.050;14.608;2022-12-17T02:40:46;84.28;;;32.13;;
4565;SDS011;2295;51.050;14.608;2022-12-17T02:43:43;91.80;;;33.15;;
4565;SDS011;2295;51.050;14.608;2022-12-17T02:46:40;85.80;;;32.20;;
4565;SDS011;2295;51.050;14.608;2022-12-17T02:49:47;84.65;;;33.08;;
4565;SDS011;2295;51.050;14.608;2022-12-17T02:52:48;94.18;;;34.95;;
4565;SDS011;2295;51.050;14.608;2022-12-17T02:55:38;95.72;;;34.20;;
4565;SDS011;2295;51.050;14.608;2022-12-17T02:58:28;86.05;;;32.05;;
4565;SDS011;2295;51.050;14.608;2022-12-17T03:01:37;88.53;;;33.38;;
4565;SDS011;2295;51.050;14.608;2022-12-17T03:04:41;84.55;;;30.83;;
4565;SDS011;2295;51.050;14.608;2022-12-17T03:08:01;84.88;;;32.40;;
4565;SDS011;2295;51.050;14.608;2022-12-17T03:10:56;86.60;;;33.83;;
4565;SDS011;2295;51.050;14.608;2022-12-17T03:14:11;86.38;;;32.60;;
4565;SDS011;2295;51.050;14.608;2022-12-17T03:17:05;93.82;;;34.33;;
4565;SDS011;2295;51.050;14.608;2022-12-17T03:19:58;90.22;;;32.00;;
4565;SDS011;2295;51.050;14.608;2022-12-17T03:22:50;99.78;;;35.65;;
4565;SDS011;2295;51.050;14.608;2022-12-17T03:25:49;92.78;;;35.60;;
4565;SDS011;2295;51.050;14.608;2022-12-17T03:28:42;88.35;;;33.60;;
4565;SDS011;2295;51.050;14.608;2022-12-17T03:31:37;89.00;;;34.20;;
4565;SDS011;2295;51.050;14.608;2022-12-17T03:34:39;90.88;;;33.67;;
4565;SDS011;2295;51.050;14.608;2022-12-17T03:37:37;85.28;;;34.30;;
4565;SDS011;2295;51.050;14.608;2022-12-17T03:40:31;98.55;;;34.88;;
4565;SDS011;2295;51.050;14.608;2022-12-17T03:43:23;85.43;;;34.10;;
4565;SDS011;2295;51.050;14.608;2022-12-17T03:46:21;94.75;;;34.33;;
4565;SDS011;2295;51.050;14.608;2022-12-17T03:49:28;83.53;;;33.47;;
4565;SDS011;2295;51.050;14.608;2022-12-17T03:52:22;84.35;;;32.60;;
4565;SDS011;2295;51.050;14.608;2022-12-17T03:55:17;85.50;;;32.15;;
4565;SDS011;2295;51.050;14.608;2022-12-17T03:58:13;91.45;;;33.08;;
4565;SDS011;2295;51.050;14.608;2022-12-17T04:01:08;92.75;;;34.90;;
4565;SDS011;2295;51.050;14.608;2022-12-17T04:04:06;94.35;;;32.85;;
4565;SDS011;2295;51.050;14.608;2022-12-17T04:07:11;97.18;;;35.08;;
4565;SDS011;2295;51.050;14.608;2022-12-17T04:10:39;83.13;;;32.90;;
4565;SDS011;2295;51.050;14.608;2022-12-17T04:14:05;81.63;;;33.05;;
4565;SDS011;2295;51.050;14.608;2022-12-17T04:17:04;90.22;;;33.92;;
4565;SDS011;2295;51.050;14.608;2022-12-17T04:20:20;92.00;;;33.80;;
4565;SDS011;2295;51.050;14.608;2022-12-17T04:23:14;91.30;;;33.45;;
4565;SDS011;2295;51.050;14.608;2022-12-17T04:26:50;81.07;;;30.60;;
4565;SDS011;2295;51.050;14.608;2022-12-17T04:29:52;80.15;;;30.88;;
4565;SDS011;2295;51.050;14.608;2022-12-17T04:33:09;79.82;;;31.75;;
4565;SDS011;2295;51.050;14.608;2022-12-17T04:36:05;70.68;;;28.92;;
4565;SDS011;2295;51.050;14.608;2022-12-17T04:39:09;90.38;;;31.73;;
4565;SDS011;2295;51.050;14.608;2022-12-17T04:45:34;83.72;;;30.60;;
4565;SDS011;2295;51.050;14.608;2022-12-17T04:48:30;81.40;;;32.03;;
4565;SDS011;2295;51.050;14.608;2022-12-17T04:51:34;101.75;;;36.90;;
4565;SDS011;2295;51.050;14.608;2022-12-17T04:54:33;91.78;;;36.20;;
4565;SDS011;2295;51.050;14.608;2022-12-17T04:57:45;84.50;;;32.97;;
4565;SDS011;2295;51.050;14.608;2022-12-17T05:00:50;96.07;;;36.80;;
4565;SDS011;2295;51.050;14.608;2022-12-17T05:03:40;103.15;;;37.88;;
4565;SDS011;2295;51.050;14.608;2022-12-17T05:06:34;97.15;;;37.08;;
4565;SDS011;2295;51.050;14.608;2022-12-17T05:09:34;83.03;;;33.03;;
4565;SDS011;2295;51.050;14.608;2022-12-17T05:12:33;78.20;;;30.02;;
4565;SDS011;2295;51.050;14.608;2022-12-17T05:16:03;78.47;;;32.03;;
4565;SDS011;2295;51.050;14.608;2022-12-17T05:19:11;91.88;;;32.13;;
4565;SDS011;2295;51.050;14.608;2022-12-17T05:22:19;86.93;;;31.65;;
4565;SDS011;2295;51.050;14.608;2022-12-17T05:25:14;79.05;;;29.15;;
4565;SDS011;2295;51.050;14.608;2022-12-17T05:28:23;81.85;;;30.13;;
4565;SDS011;2295;51.050;14.608;2022-12-17T05:31:30;83.30;;;30.10;;
4565;SDS011;2295;51.050;14.608;2022-12-17T05:34:51;76.07;;;29.10;;
4565;SDS011;2295;51.050;14.608;2022-12-17T05:38:03;76.80;;;28.73;;
4565;SDS011;2295;51.050;14.608;2022-12-17T05:40:55;77.07;;;30.38;;
4565;SDS011;2295;51.050;14.608;2022-12-17T05:43:54;81.22;;;30.20;;
4565;SDS011;2295;51.050;14.608;2022-12-17T05:46:56;95.15;;;35.58;;
4565;SDS011;2295;51.050;14.608;2022-12-17T05:49:53;90.85;;;33.22;;
4565;SDS011;2295;51.050;14.608;2022-12-17T05:52:50;91.70;;;33.20;;
4565;SDS011;2295;51.050;14.608;2022-12-17T05:56:05;80.32;;;28.85;;
4565;SDS011;2295;51.050;14.608;2022-12-17T05:59:03;71.55;;;28.15;;
4565;SDS011;2295;51.050;14.608;2022-12-17T06:01:51;78.40;;;30.10;;
4565;SDS011;2295;51.050;14.608;2022-12-17T06:04:59;75.35;;;30.20;;
4565;SDS011;2295;51.050;14.608;2022-12-17T06:08:03;77.68;;;29.30;;
4565;SDS011;2295;51.050;14.608;2022-12-17T06:10:59;72.40;;;28.67;;
4565;SDS011;2295;51.050;14.608;2022-12-17T06:13:49;78.25;;;31.55;;
4565;SDS011;2295;51.050;14.608;2022-12-17T06:16:49;73.55;;;28.60;;
4565;SDS011;2295;51.050;14.608;2022-12-17T06:19:46;81.18;;;29.45;;
4565;SDS011;2295;51.050;14.608;2022-12-17T06:22:47;63.60;;;26.45;;
4565;SDS011;2295;51.050;14.608;2022-12-17T06:25:45;73.18;;;28.75;;
4565;SDS011;2295;51.050;14.608;2022-12-17T06:29:00;72.93;;;28.27;;
4565;SDS011;2295;51.050;14.608;2022-12-17T06:32:15;80.28;;;29.60;;
4565;SDS011;2295;51.050;14.608;2022-12-17T06:35:15;76.47;;;28.27;;
4565;SDS011;2295;51.050;14.608;2022-12-17T06:38:06;81.65;;;27.25;;
4565;SDS011;2295;51.050;14.608;2022-12-17T06:40:52;74.25;;;29.05;;
4565;SDS011;2295;51.050;14.608;2022-12-17T06:43:48;80.35;;;29.15;;
4565;SDS011;2295;51.050;14.608;2022-12-17T06:46:41;81.50;;;30.00;;
4565;SDS011;2295;51.050;14.608;2022-12-17T06:49:42;76.70;;;30.85;;
4565;SDS011;2295;51.050;14.608;2022-12-17T06:52:41;80.78;;;30.45;;
4565;SDS011;2295;51.050;14.608;2022-12-17T06:55:38;74.35;;;28.73;;
4565;SDS011;2295;51.050;14.608;2022-12-17T06:58:39;91.68;;;31.10;;
4565;SDS011;2295;51.050;14.608;2022-12-17T07:01:32;92.30;;;29.50;;
4565;SDS011;2295;51.050;14.608;2022-12-17T07:04:28;101.20;;;30.85;;
4565;SDS011;2295;51.050;14.608;2022-12-17T07:07:17;95.72;;;30.25;;
4565;SDS011;2295;51.050;14.608;2022-12-17T07:10:08;95.75;;;30.60;;
4565;SDS011;2295;51.050;14.608;2022-12-17T07:13:03;91.53;;;30.88;;
4565;SDS011;2295;51.050;14.608;2022-12-17T07:15:56;83.20;;;30.42;;
4565;SDS011;2295;51.050;14.608;2022-12-17T07:18:48;81.88;;;29.23;;
4565;SDS011;2295;51.050;14.608;2022-12-17T07:21:54;78.15;;;27.75;;
4565;SDS011;2295;51.050;14.608;2022-12-17T07:24:43;74.90;;;28.90;;
4565;SDS011;2295;51.050;14.608;2022-12-17T07:27:37;90.05;;;31.33;;
4565;SDS011;2295;51.050;14.608;2022-12-17T07:30:37;89.63;;;30.05;;
4565;SDS011;2295;51.050;14.608;2022-12-17T07:33:26;122.13;;;35.67;;
4565;SDS011;2295;51.050;14.608;2022-12-17T07:36:19;89.47;;;29.73;;
4565;SDS011;2295;51.050;14.608;2022-12-17T07:39:16;95.22;;;33.00;;
4565;SDS011;2295;51.050;14.608;2022-12-17T07:42:05;87.85;;;30.52;;
4565;SDS011;2295;51.050;14.608;2022-12-17T07:45:01;93.05;;;29.75;;
4565;SDS011;2295;51.050;14.608;2022-12-17T07:47:53;77.68;;;31.60;;
4565;SDS011;2295;51.050;14.608;2022-12-17T07:50:54;91.03;;;31.15;;
4565;SDS011;2295;51.050;14.608;2022-12-17T07:53:58;88.95;;;31.45;;
4565;SDS011;2295;51.050;14.608;2022-12-17T07:56:57;96.85;;;32.58;;
4565;SDS011;2295;51.050;14.608;2022-12-17T07:59:52;85.82;;;30.58;;
4565;SDS011;2295;51.050;14.608;2022-12-17T08:02:46;93.22;;;30.95;;
4565;SDS011;2295;51.050;14.608;2022-12-17T08:05:36;100.75;;;32.83;;
4565;SDS011;2295;51.050;14.608;2022-12-17T08:08:25;106.88;;;33.78;;
4565;SDS011;2295;51.050;14.608;2022-12-17T08:11:18;92.35;;;31.33;;
4565;SDS011;2295;51.050;14.608;2022-12-17T08:14:11;98.28;;;33.97;;
4565;SDS011;2295;51.050;14.608;2022-12-17T08:16:59;96.55;;;30.75;;
4565;SDS011;2295;51.050;14.608;2022-12-17T08:19:50;88.05;;;31.60;;
4565;SDS011;2295;51.050;14.608;2022-12-17T08:22:43;97.50;;;30.40;;
4565;SDS011;2295;51.050;14.608;2022-12-17T08:25:36;93.75;;;31.08;;
4565;SDS011;2295;51.050;14.608;2022-12-17T08:28:35;92.15;;;32.35;;
4565;SDS011;2295;51.050;14.608;2022-12-17T08:31:39;89.20;;;31.60;;
4565;SDS011;2295;51.050;14.608;2022-12-17T08:34:29;91.93;;;32.67;;
4565;SDS011;2295;51.050;14.608;2022-12-17T08:37:26;106.57;;;35.72;;
4565;SDS011;2295;51.050;14.608;2022-12-17T08:40:18;102.20;;;33.25;;
4565;SDS011;2295;51.050;14.608;2022-12-17T08:43:14;90.40;;;32.60;;
4565;SDS011;2295;51.050;14.608;2022-12-17T08:46:05;92.80;;;32.97;;
4565;SDS011;2295;51.050;14.608;2022-12-17T08:48:54;98.18;;;33.05;;
4565;SDS011;2295;51.050;14.608;2022-12-17T08:51:49;106.85;;;34.20;;
4565;SDS011;2295;51.050;14.608;2022-12-17T08:54:47;93.22;;;32.90;;
4565;SDS011;2295;51.050;14.608;2022-12-17T08:57:37;86.80;;;31.42;;
4565;SDS011;2295;51.050;14.608;2022-12-17T09:00:26;100.65;;;31.95;;
4565;SDS011;2295;51.050;14.608;2022-12-17T09:03:22;99.35;;;32.17;;
4565;SDS011;2295;51.050;14.608;2022-12-17T09:06:13;93.85;;;35.80;;
4565;SDS011;2295;51.050;14.608;2022-12-17T09:09:05;97.65;;;34.08;;
4565;SDS011;2295;51.050;14.608;2022-12-17T09:11:59;93.07;;;34.78;;
4565;SDS011;2295;51.050;14.608;2022-12-17T09:14:46;106.93;;;38.63;;
4565;SDS011;2295;51.050;14.608;2022-12-17T09:17:32;107.75;;;35.60;;
4565;SDS011;2295;51.050;14.608;2022-12-17T09:20:21;94.15;;;31.77;;
4565;SDS011;2295;51.050;14.608;2022-12-17T09:23:16;132.20;;;37.58;;
4565;SDS011;2295;51.050;14.608;2022-12-17T09:26:08;109.75;;;43.72;;
4565;SDS011;2295;51.050;14.608;2022-12-17T09:29:02;149.05;;;48.22;;
4565;SDS011;2295;51.050;14.608;2022-12-17T09:31:48;88.28;;;34.72;;
4565;SDS011;2295;51.050;14.608;2022-12-17T09:34:43;100.70;;;34.22;;
4565;SDS011;2295;51.050;14.608;2022-12-17T09:37:40;93.78;;;35.15;;
4565;SDS011;2295;51.050;14.608;2022-12-17T09:40:32;100.97;;;36.22;;
4565;SDS011;2295;51.050;14.608;2022-12-17T09:43:31;93.75;;;34.58;;
4565;SDS011;2295;51.050;14.608;2022-12-17T09:46:32;105.88;;;38.45;;
4565;SDS011;2295;51.050;14.608;2022-12-17T09:49:29;110.40;;;40.08;;
4565;SDS011;2295;51.050;14.608;2022-12-17T09:52:28;114.63;;;39.78;;
4565;SDS011;2295;51.050;14.608;2022-12-17T09:55:19;126.22;;;38.92;;
4565;SDS011;2295;51.050;14.608;2022-12-17T09:58:16;110.18;;;36.40;;
4565;SDS011;2295;51.050;14.608;2022-12-17T10:01:04;104.50;;;39.50;;
4565;SDS011;2295;51.050;14.608;2022-12-17T10:03:59;121.18;;;40.88;;
4565;SDS011;2295;51.050;14.608;2022-12-17T10:06:57;103.05;;;37.25;;
4565;SDS011;2295;51.050;14.608;2022-12-17T10:10:14;98.47;;;36.58;;
4565;SDS011;2295;51.050;14.608;2022-12-17T10:13:09;105.90;;;37.67;;
4565;SDS011;2295;51.050;14.608;2022-12-17T10:15:56;118.95;;;41.83;;
4565;SDS011;2295;51.050;14.608;2022-12-17T10:18:58;106.78;;;38.47;;
4565;SDS011;2295;51.050;14.608;2022-12-17T10:22:15;95.63;;;34.33;;
4565;SDS011;2295;51.050;14.608;2022-12-17T10:25:13;100.85;;;38.80;;
4565;SDS011;2295;51.050;14.608;2022-12-17T10:28:04;99.50;;;34.08;;
4565;SDS011;2295;51.050;14.608;2022-12-17T10:30:54;102.22;;;36.45;;
4565;SDS011;2295;51.050;14.608;2022-12-17T10:33:40;89.68;;;32.45;;
4565;SDS011;2295;51.050;14.608;2022-12-17T10:36:29;107.55;;;37.92;;
4565;SDS011;2295;51.050;14.608;2022-12-17T10:39:22;90.53;;;33.95;;
4565;SDS011;2295;51.050;14.608;2022-12-17T10:42:17;99.28;;;32.25;;
4565;SDS011;2295;51.050;14.608;2022-12-17T10:45:19;92.22;;;32.85;;
4565;SDS011;2295;51.050;14.608;2022-12-17T10:48:19;78.70;;;29.30;;
4565;SDS011;2295;51.050;14.608;2022-12-17T10:51:19;72.78;;;28.45;;
4565;SDS011;2295;51.050;14.608;2022-12-17T10:54:15;88.68;;;30.52;;
4565;SDS011;2295;51.050;14.608;2022-12-17T10:57:28;69.18;;;27.95;;
4565;SDS011;2295;51.050;14.608;2022-12-17T11:00:36;79.30;;;27.83;;
4565;SDS011;2295;51.050;14.608;2022-12-17T11:03:46;73.07;;;25.67;;
4565;SDS011;2295;51.050;14.608;2022-12-17T11:06:56;84.88;;;26.55;;
4565;SDS011;2295;51.050;14.608;2022-12-17T11:09:54;67.10;;;27.70;;
4565;SDS011;2295;51.050;14.608;2022-12-17T11:12:58;73.32;;;28.38;;
4565;SDS011;2295;51.050;14.608;2022-12-17T11:15:57;71.50;;;27.15;;
4565;SDS011;2295;51.050;14.608;2022-12-17T11:19:03;74.55;;;28.60;;
4565;SDS011;2295;51.050;14.608;2022-12-17T11:22:28;69.40;;;26.45;;
4565;SDS011;2295;51.050;14.608;2022-12-17T11:25:38;69.32;;;25.15;;
4565;SDS011;2295;51.050;14.608;2022-12-17T11:28:33;75.63;;;26.05;;
4565;SDS011;2295;51.050;14.608;2022-12-17T11:31:44;82.57;;;28.10;;
4565;SDS011;2295;51.050;14.608;2022-12-17T11:34:58;75.13;;;27.25;;
4565;SDS011;2295;51.050;14.608;2022-12-17T11:38:16;79.57;;;27.92;;
4565;SDS011;2295;51.050;14.608;2022-12-17T11:41:35;67.50;;;26.15;;
4565;SDS011;2295;51.050;14.608;2022-12-17T11:44:42;76.20;;;27.92;;
4565;SDS011;2295;51.050;14.608;2022-12-17T11:47:46;78.65;;;28.52;;
4565;SDS011;2295;51.050;14.608;2022-12-17T11:50:59;69.70;;;24.25;;
4565;SDS011;2295;51.050;14.608;2022-12-17T11:54:17;69.95;;;26.90;;
4565;SDS011;2295;51.050;14.608;2022-12-17T11:57:50;82.47;;;29.08;;
4565;SDS011;2295;51.050;14.608;2022-12-17T12:01:02;71.88;;;26.77;;
4565;SDS011;2295;51.050;14.608;2022-12-17T12:04:08;75.97;;;27.60;;
4565;SDS011;2295;51.050;14.608;2022-12-17T12:07:22;70.90;;;26.40;;
4565;SDS011;2295;51.050;14.608;2022-12-17T12:10:33;88.80;;;28.25;;
4565;SDS011;2295;51.050;14.608;2022-12-17T12:13:36;80.40;;;29.65;;
4565;SDS011;2295;51.050;14.608;2022-12-17T12:16:43;67.10;;;25.27;;
4565;SDS011;2295;51.050;14.608;2022-12-17T12:19:49;67.32;;;24.55;;
4565;SDS011;2295;51.050;14.608;2022-12-17T12:22:56;77.72;;;26.83;;
4565;SDS011;2295;51.050;14.608;2022-12-17T12:26:16;65.10;;;23.13;;
4565;SDS011;2295;51.050;14.608;2022-12-17T12:29:19;71.75;;;25.55;;
4565;SDS011;2295;51.050;14.608;2022-12-17T12:32:15;77.63;;;26.35;;
4565;SDS011;2295;51.050;14.608;2022-12-17T12:35:17;75.25;;;28.33;;
4565;SDS011;2295;51.050;14.608;2022-12-17T12:38:36;74.22;;;26.83;;
4565;SDS011;2295;51.050;14.608;2022-12-17T12:41:46;76.70;;;26.88;;
4565;SDS011;2295;51.050;14.608;2022-12-17T12:44:54;73.30;;;26.38;;
4565;SDS011;2295;51.050;14.608;2022-12-17T12:48:04;75.25;;;25.90;;
4565;SDS011;2295;51.050;14.608;2022-12-17T12:51:18;75.85;;;25.55;;
4565;SDS011;2295;51.050;14.608;2022-12-17T12:54:24;70.00;;;24.63;;
4565;SDS011;2295;51.050;14.608;2022-12-17T12:57:30;87.88;;;27.60;;
4565;SDS011;2295;51.050;14.608;2022-12-17T13:00:36;70.43;;;26.42;;
4565;SDS011;2295;51.050;14.608;2022-12-17T13:03:25;77.60;;;27.10;;
4565;SDS011;2295;51.050;14.608;2022-12-17T13:06:41;81.82;;;27.65;;
4565;SDS011;2295;51.050;14.608;2022-12-17T13:09:46;63.00;;;24.00;;
4565;SDS011;2295;51.050;14.608;2022-12-17T13:12:53;76.90;;;25.40;;
4565;SDS011;2295;51.050;14.608;2022-12-17T13:16:15;68.15;;;23.23;;
4565;SDS011;2295;51.050;14.608;2022-12-17T13:19:20;98.57;;;29.20;;
4565;SDS011;2295;51.050;14.608;2022-12-17T13:22:26;80.40;;;24.08;;
4565;SDS011;2295;51.050;14.608;2022-12-17T13:25:15;76.72;;;24.75;;
4565;SDS011;2295;51.050;14.608;2022-12-17T13:28:22;85.18;;;28.25;;
4565;SDS011;2295;51.050;14.608;2022-12-17T13:31:01;67.45;;;24.10;;
4565;SDS011;2295;51.050;14.608;2022-12-17T13:33:37;66.15;;;25.05;;
4565;SDS011;2295;51.050;14.608;2022-12-17T13:36:15;73.53;;;25.00;;
4565;SDS011;2295;51.050;14.608;2022-12-17T13:38:53;75.68;;;28.00;;
4565;SDS011;2295;51.050;14.608;2022-12-17T13:41:29;75.82;;;25.95;;
4565;SDS011;2295;51.050;14.608;2022-12-17T13:44:00;77.10;;;27.33;;
4565;SDS011;2295;51.050;14.608;2022-12-17T13:46:46;67.82;;;24.25;;
4565;SDS011;2295;51.050;14.608;2022-12-17T13:49:33;98.70;;;35.72;;
4565;SDS011;2295;51.050;14.608;2022-12-17T13:52:06;117.75;;;41.10;;
4565;SDS011;2295;51.050;14.608;2022-12-17T13:54:43;90.47;;;34.88;;
4565;SDS011;2295;51.050;14.608;2022-12-17T13:57:13;96.03;;;35.15;;
4565;SDS011;2295;51.050;14.608;2022-12-17T13:59:49;93.07;;;30.95;;
4565;SDS011;2295;51.050;14.608;2022-12-17T14:02:23;70.57;;;25.98;;
4565;SDS011;2295;51.050;14.608;2022-12-17T14:04:55;89.43;;;35.03;;
4565;SDS011;2295;51.050;14.608;2022-12-17T14:07:33;79.55;;;29.25;;
4565;SDS011;2295;51.050;14.608;2022-12-17T14:10:09;80.53;;;31.27;;
4565;SDS011;2295;51.050;14.608;2022-12-17T14:13:02;79.70;;;28.90;;
4565;SDS011;2295;51.050;14.608;2022-12-17T14:15:35;83.05;;;31.17;;
4565;SDS011;2295;51.050;14.608;2022-12-17T14:18:18;98.90;;;32.88;;
4565;SDS011;2295;51.050;14.608;2022-12-17T14:21:31;80.22;;;27.55;;
4565;SDS011;2295;51.050;14.608;2022-12-17T14:24:42;93.97;;;33.28;;
4565;SDS011;2295;51.050;14.608;2022-12-17T14:27:38;92.75;;;32.05;;
4565;SDS011;2295;51.050;14.608;2022-12-17T14:30:38;76.47;;;26.30;;
4565;SDS011;2295;51.050;14.608;2022-12-17T14:33:37;66.20;;;24.98;;
4565;SDS011;2295;51.050;14.608;2022-12-17T14:36:08;66.88;;;25.38;;
4565;SDS011;2295;51.050;14.608;2022-12-17T14:38:53;61.08;;;24.25;;
4565;SDS011;2295;51.050;14.608;2022-12-17T14:41:24;66.88;;;25.17;;
4565;SDS011;2295;51.050;14.608;2022-12-17T14:44:16;74.57;;;26.67;;
4565;SDS011;2295;51.050;14.608;2022-12-17T14:47:05;75.15;;;23.00;;
4565;SDS011;2295;51.050;14.608;2022-12-17T14:50:23;71.80;;;26.33;;
4565;SDS011;2295;51.050;14.608;2022-12-17T14:53:28;56.50;;;22.40;;
4565;SDS011;2295;51.050;14.608;2022-12-17T14:56:16;63.03;;;20.88;;
4565;SDS011;2295;51.050;14.608;2022-12-17T14:58:58;64.22;;;22.92;;
4565;SDS011;2295;51.050;14.608;2022-12-17T15:02:03;64.80;;;24.95;;
4565;SDS011;2295;51.050;14.608;2022-12-17T15:05:37;54.47;;;20.10;;
4565;SDS011;2295;51.050;14.608;2022-12-17T15:08:23;63.55;;;22.30;;
4565;SDS011;2295;51.050;14.608;2022-12-17T15:11:08;56.67;;;21.02;;
4565;SDS011;2295;51.050;14.608;2022-12-17T15:13:46;63.78;;;23.52;;
4565;SDS011;2295;51.050;14.608;2022-12-17T15:16:22;54.80;;;20.75;;
4565;SDS011;2295;51.050;14.608;2022-12-17T15:18:53;59.38;;;21.00;;
4565;SDS011;2295;51.050;14.608;2022-12-17T15:21:32;58.10;;;21.98;;
4565;SDS011;2295;51.050;14.608;2022-12-17T15:24:05;58.08;;;21.48;;
4565;SDS011;2295;51.050;14.608;2022-12-17T15:26:51;59.88;;;23.35;;
4565;SDS011;2295;51.050;14.608;2022-12-17T15:29:23;66.75;;;24.15;;
4565;SDS011;2295;51.050;14.608;2022-12-17T15:31:53;60.67;;;25.25;;
4565;SDS011;2295;51.050;14.608;2022-12-17T15:34:34;72.22;;;25.67;;
4565;SDS011;2295;51.050;14.608;2022-12-17T15:37:11;63.15;;;22.77;;
4565;SDS011;2295;51.050;14.608;2022-12-17T15:39:43;54.30;;;19.55;;
4565;SDS011;2295;51.050;14.608;2022-12-17T15:42:17;78.68;;;26.15;;
4565;SDS011;2295;51.050;14.608;2022-12-17T15:45:04;63.03;;;26.17;;
4565;SDS011;2295;51.050;14.608;2022-12-17T15:47:33;60.45;;;23.05;;
4565;SDS011;2295;51.050;14.608;2022-12-17T15:50:02;68.95;;;26.90;;
4565;SDS011;2295;51.050;14.608;2022-12-17T15:52:31;65.13;;;22.48;;
4565;SDS011;2295;51.050;14.608;2022-12-17T15:54:59;69.22;;;21.88;;
4565;SDS011;2295;51.050;14.608;2022-12-17T15:57:30;70.38;;;26.13;;
4565;SDS011;2295;51.050;14.608;2022-12-17T16:00:11;66.75;;;25.20;;
4565;SDS011;2295;51.050;14.608;2022-12-17T16:03:15;58.85;;;23.90;;
4565;SDS011;2295;51.050;14.608;2022-12-17T16:06:24;54.85;;;19.45;;
4565;SDS011;2295;51.050;14.608;2022-12-17T16:09:43;51.75;;;18.25;;
4565;SDS011;2295;51.050;14.608;2022-12-17T16:12:55;55.10;;;19.13;;
4565;SDS011;2295;51.050;14.608;2022-12-17T16:16:20;51.30;;;18.30;;
4565;SDS011;2295;51.050;14.608;2022-12-17T16:19:25;57.25;;;20.70;;
4565;SDS011;2295;51.050;14.608;2022-12-17T16:22:42;69.18;;;23.80;;
4565;SDS011;2295;51.050;14.608;2022-12-17T16:25:56;67.55;;;23.05;;
4565;SDS011;2295;51.050;14.608;2022-12-17T16:28:34;69.75;;;20.80;;
4565;SDS011;2295;51.050;14.608;2022-12-17T16:31:10;68.35;;;22.67;;
4565;SDS011;2295;51.050;14.608;2022-12-17T16:33:49;54.28;;;20.63;;
4565;SDS011;2295;51.050;14.608;2022-12-17T16:36:40;72.07;;;22.40;;
4565;SDS011;2295;51.050;14.608;2022-12-17T16:39:13;64.13;;;22.40;;
4565;SDS011;2295;51.050;14.608;2022-12-17T16:41:43;77.35;;;23.50;;
4565;SDS011;2295;51.050;14.608;2022-12-17T16:44:14;67.35;;;22.50;;
4565;SDS011;2295;51.050;14.608;2022-12-17T16:46:54;68.63;;;23.17;;
4565;SDS011;2295;51.050;14.608;2022-12-17T16:49:26;69.10;;;23.98;;
4565;SDS011;2295;51.050;14.608;2022-12-17T16:51:55;64.45;;;22.60;;
4565;SDS011;2295;51.050;14.608;2022-12-17T16:54:38;80.13;;;26.10;;
4565;SDS011;2295;51.050;14.608;2022-12-17T16:57:08;75.85;;;25.45;;
4565;SDS011;2295;51.050;14.608;2022-12-17T16:59:38;71.28;;;26.35;;
4565;SDS011;2295;51.050;14.608;2022-12-17T17:02:09;72.15;;;23.13;;
4565;SDS011;2295;51.050;14.608;2022-12-17T17:04:45;67.05;;;22.65;;
4565;SDS011;2295;51.050;14.608;2022-12-17T17:07:14;89.90;;;30.85;;
4565;SDS011;2295;51.050;14.608;2022-12-17T17:09:48;77.45;;;25.77;;
4565;SDS011;2295;51.050;14.608;2022-12-17T17:12:17;77.35;;;26.80;;
4565;SDS011;2295;51.050;14.608;2022-12-17T17:14:51;88.28;;;28.55;;
4565;SDS011;2295;51.050;14.608;2022-12-17T17:17:20;75.82;;;28.83;;
4565;SDS011;2295;51.050;14.608;2022-12-17T17:20:15;70.53;;;23.73;;
4565;SDS011;2295;51.050;14.608;2022-12-17T17:23:11;76.30;;;23.02;;
4565;SDS011;2295;51.050;14.608;2022-12-17T17:25:39;82.30;;;28.60;;
4565;SDS011;2295;51.050;14.608;2022-12-17T17:28:24;82.10;;;27.55;;